RCXY weather

Guerin Airport
Guerin, Tainan County, Taiwan

Public forecast

Using degrees Celsius for public forecast. Weather courtesy of forecast.io.

Closest aviation weather report (METAR) to Guerin Airport

Closest report is Tainan Airport, 4.7 nm (8.7 km) WSW. Retrieved 2019/10/15 11:30 UTC (0 seconds ago):

RCNN 151130Z 01005KT 8000 FEW012 BKN060 24/17 Q1016 NOSIG RMK A3001

Closest aviation forecast (TAF) to Guerin Airport

Closest forecast is Tainan Airport, 4.7 nm (8.7 km) WSW. Retrieved 2019/10/15 06:00 UTC (5 hours ago):

TAF RCNN 150500Z 1506/1606 26008KT 9999 FEW012 SCT060 TX31/1506Z TN24/1520Z BECMG 1511/1514 02004KT BECMG 1520/1523 6000 FEW012 BKN050 BECMG 1601/1604 30010KT